Bonduel, Wisconsin
Current Conditions -  °F | °C
As of 5:35 PM on Saturday 20 Dec 2014 (Local Time) from KEZS Reporting Station
Overcast Overcast  
Wind Chill: 31°   Ceiling: 2700
Heat Index: 31°   Visibility: 7mi
Dew Point: 26°   Wind: 0mph
Humidity: 80%   Direction: NA
Pressure: 30.22"   Gusts: NA
Location:  44.74°N, 88.44°W
Report Text: KEZS 202335Z AUTO 00000KT 7SM OVC027 M01/M04 A3022 RMK AO2 T10061036
Loading
Personal Weather Stations






























Interactive Weather Map New forecast layout! Learn more

10-Day Weather Forecast

Advertisements
Track Severe Weather on mobile